<?xml version="1.0" encoding="UTF-8" standalone="no" ?>
<gpx xmlns="http://www.topografix.com/GPX/1/1" xmlns:xsi="http://www.w3.org/2001/XMLSchema-instance" xsi:schemaLocation="http://www.topografix.com/GPX/1/1 http://www.topografix.com/GPX/1/1/gpx.xsd" version="1.1" creator="VisuGPX - https://www.visugpx.com">
  <metadata>
    <name>But Sapiau</name>
    <desc><![CDATA[Promenade au départ de l'arrivé du télésiège  du col du Rousset ouvert l'été, jusqu'au But Sapiau, dans les alpages. Superbe belvédère sur le Diois. Observation de vautours. Attention à vos enfants, falaises abruptes !]]></desc>
  </metadata>
  <trk>
    <name><![CDATA[But Sapiau sur TraceDeTrail.fr]]></name>
    <trkseg>
      <trkpt lat="44.83355" lon="5.41248">
        <ele>1499</ele>
        <time>2018-08-16T08:46:38.000Z</time>
      </trkpt>
      <trkpt lat="44.83315" lon="5.41222">
        <ele>1511</ele>
        <time>2018-08-16T08:48:01.000Z</time>
      </trkpt>
      <trkpt lat="44.83271" lon="5.4123">
        <ele>1511</ele>
        <time>2018-08-16T08:49:21.000Z</time>
      </trkpt>
      <trkpt lat="44.83243" lon="5.41234">
        <ele>1511</ele>
      </trkpt>
      <trkpt lat="44.83204" lon="5.4124">
        <ele>1510</ele>
        <time>2018-08-16T08:52:06.000Z</time>
      </trkpt>
      <trkpt lat="44.83212" lon="5.4123">
        <ele>1524.6</ele>
      </trkpt>
      <trkpt lat="44.83214" lon="5.41227">
        <ele>1524.7</ele>
      </trkpt>
      <trkpt lat="44.83202" lon="5.41217">
        <ele>1510</ele>
        <time>2018-08-16T08:53:03.000Z</time>
      </trkpt>
      <trkpt lat="44.83194" lon="5.41222">
        <ele>1528.9</ele>
      </trkpt>
      <trkpt lat="44.83181" lon="5.4121">
        <ele>1508</ele>
        <time>2018-08-16T08:55:24.000Z</time>
      </trkpt>
      <trkpt lat="44.83175" lon="5.41212">
        <ele>1524</ele>
      </trkpt>
      <trkpt lat="44.83188" lon="5.41271">
        <ele>1510</ele>
        <time>2018-08-16T09:02:59.000Z</time>
      </trkpt>
      <trkpt lat="44.832" lon="5.41279">
        <ele>1517.7</ele>
      </trkpt>
      <trkpt lat="44.83201" lon="5.41314">
        <ele>1509</ele>
        <time>2018-08-16T09:05:32.000Z</time>
      </trkpt>
      <trkpt lat="44.83193" lon="5.41337">
        <ele>1516.8</ele>
      </trkpt>
      <trkpt lat="44.83191" lon="5.41338">
        <ele>1508</ele>
        <time>2018-08-16T09:06:01.000Z</time>
      </trkpt>
      <trkpt lat="44.83186" lon="5.41346">
        <ele>1516.3</ele>
      </trkpt>
      <trkpt lat="44.8318" lon="5.41361">
        <ele>1507</ele>
        <time>2018-08-16T09:08:10.000Z</time>
      </trkpt>
      <trkpt lat="44.8317" lon="5.41389">
        <ele>1509</ele>
        <time>2018-08-16T09:08:41.000Z</time>
      </trkpt>
      <trkpt lat="44.83138" lon="5.41433">
        <ele>1512</ele>
        <time>2018-08-16T09:10:14.000Z</time>
      </trkpt>
      <trkpt lat="44.83133" lon="5.41442">
        <ele>1522.8</ele>
      </trkpt>
      <trkpt lat="44.831" lon="5.41481">
        <ele>1517</ele>
        <time>2018-08-16T09:12:10.000Z</time>
      </trkpt>
      <trkpt lat="44.8306" lon="5.41506">
        <ele>1519</ele>
        <time>2018-08-16T09:13:59.000Z</time>
      </trkpt>
      <trkpt lat="44.83017" lon="5.41524">
        <ele>1522</ele>
        <time>2018-08-16T09:15:30.000Z</time>
      </trkpt>
      <trkpt lat="44.82973" lon="5.41537">
        <ele>1526</ele>
        <time>2018-08-16T09:17:05.000Z</time>
      </trkpt>
      <trkpt lat="44.82939" lon="5.41552">
        <ele>1540</ele>
        <time>2018-08-16T09:18:12.000Z</time>
      </trkpt>
      <trkpt lat="44.82896" lon="5.41567">
        <ele>1541</ele>
        <time>2018-08-16T09:20:06.000Z</time>
      </trkpt>
      <trkpt lat="44.8285" lon="5.41573">
        <ele>1549</ele>
        <time>2018-08-16T09:21:27.000Z</time>
      </trkpt>
      <trkpt lat="44.82822" lon="5.41589">
        <ele>1551</ele>
      </trkpt>
      <trkpt lat="44.82798" lon="5.41602">
        <ele>1559</ele>
      </trkpt>
      <trkpt lat="44.8277" lon="5.41617">
        <ele>1563</ele>
        <time>2018-08-16T09:24:02.000Z</time>
      </trkpt>
      <trkpt lat="44.82732" lon="5.41646">
        <ele>1575</ele>
        <time>2018-08-16T09:25:53.000Z</time>
      </trkpt>
      <trkpt lat="44.8269" lon="5.41665">
        <ele>1580</ele>
        <time>2018-08-16T09:27:26.000Z</time>
      </trkpt>
      <trkpt lat="44.82669" lon="5.41679">
        <ele>1581</ele>
        <time>2018-08-16T09:28:32.000Z</time>
      </trkpt>
      <trkpt lat="44.82642" lon="5.41702">
        <ele>1578</ele>
        <time>2018-08-16T09:29:23.000Z</time>
      </trkpt>
      <trkpt lat="44.82639" lon="5.41715">
        <ele>1609.2</ele>
      </trkpt>
      <trkpt lat="44.82628" lon="5.41737">
        <ele>1576</ele>
        <time>2018-08-16T09:30:20.000Z</time>
      </trkpt>
      <trkpt lat="44.82617" lon="5.41765">
        <ele>1577</ele>
        <time>2018-08-16T09:31:30.000Z</time>
      </trkpt>
      <trkpt lat="44.82628" lon="5.41765">
        <ele>1603</ele>
      </trkpt>
      <trkpt lat="44.82635" lon="5.41759">
        <ele>1579</ele>
        <time>2018-08-16T09:31:57.000Z</time>
      </trkpt>
      <trkpt lat="44.82642" lon="5.41751">
        <ele>1609.7</ele>
      </trkpt>
      <trkpt lat="44.82639" lon="5.41705">
        <ele>1580</ele>
        <time>2018-08-16T10:07:00.000Z</time>
      </trkpt>
      <trkpt lat="44.82646" lon="5.41697">
        <ele>1606.7</ele>
      </trkpt>
      <trkpt lat="44.82687" lon="5.41668">
        <ele>1577</ele>
        <time>2018-08-16T10:09:08.000Z</time>
      </trkpt>
      <trkpt lat="44.8273" lon="5.41651">
        <ele>1575</ele>
        <time>2018-08-16T10:10:33.000Z</time>
      </trkpt>
      <trkpt lat="44.82753" lon="5.4164">
        <ele>1571</ele>
        <time>2018-08-16T10:11:04.000Z</time>
      </trkpt>
      <trkpt lat="44.82782" lon="5.4162">
        <ele>1566</ele>
        <time>2018-08-16T10:11:58.000Z</time>
      </trkpt>
      <trkpt lat="44.82802" lon="5.41604">
        <ele>1561</ele>
        <time>2018-08-16T10:12:27.000Z</time>
      </trkpt>
      <trkpt lat="44.82814" lon="5.41593">
        <ele>1567.6</ele>
      </trkpt>
      <trkpt lat="44.82857" lon="5.41574">
        <ele>1549</ele>
        <time>2018-08-16T10:13:37.000Z</time>
      </trkpt>
      <trkpt lat="44.82875" lon="5.41568">
        <ele>1557.1</ele>
      </trkpt>
      <trkpt lat="44.8292" lon="5.41565">
        <ele>1540</ele>
        <time>2018-08-16T10:14:33.000Z</time>
      </trkpt>
      <trkpt lat="44.8295" lon="5.41554">
        <ele>1537</ele>
      </trkpt>
      <trkpt lat="44.82976" lon="5.41545">
        <ele>1526</ele>
      </trkpt>
      <trkpt lat="44.83007" lon="5.41533">
        <ele>1526</ele>
        <time>2018-08-16T10:15:52.000Z</time>
      </trkpt>
      <trkpt lat="44.83052" lon="5.41519">
        <ele>1526</ele>
        <time>2018-08-16T10:16:36.000Z</time>
      </trkpt>
      <trkpt lat="44.83094" lon="5.41497">
        <ele>1520</ele>
        <time>2018-08-16T10:17:15.000Z</time>
      </trkpt>
      <trkpt lat="44.83129" lon="5.41459">
        <ele>1516</ele>
        <time>2018-08-16T10:17:54.000Z</time>
      </trkpt>
      <trkpt lat="44.83161" lon="5.41413">
        <ele>1507</ele>
        <time>2018-08-16T10:18:36.000Z</time>
      </trkpt>
      <trkpt lat="44.83196" lon="5.41374">
        <ele>1506</ele>
        <time>2018-08-16T10:19:16.000Z</time>
      </trkpt>
      <trkpt lat="44.83201" lon="5.41368">
        <ele>1515.9</ele>
      </trkpt>
      <trkpt lat="44.83231" lon="5.41319">
        <ele>1506</ele>
        <time>2018-08-16T10:20:01.000Z</time>
      </trkpt>
      <trkpt lat="44.83261" lon="5.41273">
        <ele>1507</ele>
        <time>2018-08-16T10:20:42.000Z</time>
      </trkpt>
      <trkpt lat="44.83299" lon="5.41238">
        <ele>1507</ele>
        <time>2018-08-16T10:21:24.000Z</time>
      </trkpt>
      <trkpt lat="44.83342" lon="5.4122">
        <ele>1507</ele>
        <time>2018-08-16T10:22:05.000Z</time>
      </trkpt>
      <trkpt lat="44.83355" lon="5.41248">
        <ele>1499</ele>
        <time>2018-08-16T08:46:38.000Z</time>
      </trkpt>
    </trkseg>
  </trk>
</gpx>